sensor_id;sensor_type;location;lat;lon;timestamp;P1;durP1;ratioP1;P2;durP2;ratioP2
25982;SDS011;13773;48.868;10.730;2023-04-23T00:00:15;4.17;;;3.27;;
25982;SDS011;13773;48.868;10.730;2023-04-23T00:02:44;4.57;;;3.13;;
25982;SDS011;13773;48.868;10.730;2023-04-23T00:05:13;5.20;;;3.30;;
25982;SDS011;13773;48.868;10.730;2023-04-23T00:07:40;4.63;;;3.63;;
25982;SDS011;13773;48.868;10.730;2023-04-23T00:10:07;6.23;;;3.23;;
25982;SDS011;13773;48.868;10.730;2023-04-23T00:12:33;4.00;;;3.07;;
25982;SDS011;13773;48.868;10.730;2023-04-23T00:15:00;4.17;;;3.00;;
25982;SDS011;13773;48.868;10.730;2023-04-23T00:17:26;3.47;;;3.17;;
25982;SDS011;13773;48.868;10.730;2023-04-23T00:19:52;4.50;;;2.53;;
25982;SDS011;13773;48.868;10.730;2023-04-23T00:22:18;2.70;;;2.40;;
25982;SDS011;13773;48.868;10.730;2023-04-23T00:24:46;3.77;;;2.60;;
25982;SDS011;13773;48.868;10.730;2023-04-23T00:27:12;3.83;;;2.53;;
25982;SDS011;13773;48.868;10.730;2023-04-23T00:29:38;2.93;;;2.43;;
25982;SDS011;13773;48.868;10.730;2023-04-23T00:32:04;4.80;;;2.67;;
25982;SDS011;13773;48.868;10.730;2023-04-23T00:34:31;3.53;;;2.60;;
25982;SDS011;13773;48.868;10.730;2023-04-23T00:36:57;4.67;;;2.53;;
25982;SDS011;13773;48.868;10.730;2023-04-23T00:39:22;4.27;;;2.40;;
25982;SDS011;13773;48.868;10.730;2023-04-23T00:41:48;4.40;;;2.40;;
25982;SDS011;13773;48.868;10.730;2023-04-23T00:44:14;4.83;;;2.50;;
25982;SDS011;13773;48.868;10.730;2023-04-23T00:46:40;3.77;;;3.07;;
25982;SDS011;13773;48.868;10.730;2023-04-23T00:49:06;4.13;;;3.30;;
25982;SDS011;13773;48.868;10.730;2023-04-23T00:51:32;4.23;;;3.37;;
25982;SDS011;13773;48.868;10.730;2023-04-23T00:53:59;4.43;;;2.80;;
25982;SDS011;13773;48.868;10.730;2023-04-23T00:56:25;4.60;;;3.00;;
25982;SDS011;13773;48.868;10.730;2023-04-23T00:58:52;3.20;;;2.67;;
25982;SDS011;13773;48.868;10.730;2023-04-23T01:01:19;3.43;;;3.00;;
25982;SDS011;13773;48.868;10.730;2023-04-23T01:03:47;3.33;;;3.00;;
25982;SDS011;13773;48.868;10.730;2023-04-23T01:06:14;3.53;;;2.70;;
25982;SDS011;13773;48.868;10.730;2023-04-23T01:08:44;3.53;;;2.40;;
25982;SDS011;13773;48.868;10.730;2023-04-23T01:11:14;4.33;;;2.53;;
25982;SDS011;13773;48.868;10.730;2023-04-23T01:13:40;2.87;;;2.37;;
25982;SDS011;13773;48.868;10.730;2023-04-23T01:16:07;2.40;;;2.20;;
25982;SDS011;13773;48.868;10.730;2023-04-23T01:18:34;4.10;;;2.50;;
25982;SDS011;13773;48.868;10.730;2023-04-23T01:21:00;5.10;;;2.63;;
25982;SDS011;13773;48.868;10.730;2023-04-23T01:23:26;3.33;;;2.53;;
25982;SDS011;13773;48.868;10.730;2023-04-23T01:25:52;4.87;;;2.53;;
25982;SDS011;13773;48.868;10.730;2023-04-23T01:28:19;2.70;;;2.43;;
25982;SDS011;13773;48.868;10.730;2023-04-23T01:30:45;3.83;;;2.53;;
25982;SDS011;13773;48.868;10.730;2023-04-23T01:33:11;4.93;;;2.63;;
25982;SDS011;13773;48.868;10.730;2023-04-23T01:35:38;4.20;;;2.63;;
25982;SDS011;13773;48.868;10.730;2023-04-23T01:38:08;4.87;;;2.57;;
25982;SDS011;13773;48.868;10.730;2023-04-23T01:40:35;3.23;;;2.60;;
25982;SDS011;13773;48.868;10.730;2023-04-23T01:43:01;5.30;;;2.67;;
25982;SDS011;13773;48.868;10.730;2023-04-23T01:45:29;5.00;;;2.57;;
25982;SDS011;13773;48.868;10.730;2023-04-23T01:47:55;4.17;;;2.37;;
25982;SDS011;13773;48.868;10.730;2023-04-23T01:50:21;4.80;;;2.40;;
25982;SDS011;13773;48.868;10.730;2023-04-23T01:52:49;4.07;;;2.40;;
25982;SDS011;13773;48.868;10.730;2023-04-23T01:55:15;4.47;;;3.30;;
25982;SDS011;13773;48.868;10.730;2023-04-23T01:57:43;2.83;;;2.60;;
25982;SDS011;13773;48.868;10.730;2023-04-23T02:00:10;3.43;;;3.10;;
25982;SDS011;13773;48.868;10.730;2023-04-23T02:02:37;4.00;;;2.73;;
25982;SDS011;13773;48.868;10.730;2023-04-23T02:05:04;2.63;;;2.43;;
25982;SDS011;13773;48.868;10.730;2023-04-23T02:07:44;4.90;;;2.40;;
25982;SDS011;13773;48.868;10.730;2023-04-23T02:10:14;3.23;;;2.53;;
25982;SDS011;13773;48.868;10.730;2023-04-23T02:12:40;3.57;;;2.97;;
25982;SDS011;13773;48.868;10.730;2023-04-23T02:15:07;2.60;;;2.40;;
25982;SDS011;13773;48.868;10.730;2023-04-23T02:17:33;4.60;;;2.67;;
25982;SDS011;13773;48.868;10.730;2023-04-23T02:19:59;4.87;;;3.13;;
25982;SDS011;13773;48.868;10.730;2023-04-23T02:22:26;4.70;;;2.73;;
25982;SDS011;13773;48.868;10.730;2023-04-23T02:24:52;4.30;;;2.57;;
25982;SDS011;13773;48.868;10.730;2023-04-23T02:27:19;4.83;;;2.80;;
25982;SDS011;13773;48.868;10.730;2023-04-23T02:29:45;3.40;;;2.33;;
25982;SDS011;13773;48.868;10.730;2023-04-23T02:32:12;5.27;;;3.27;;
25982;SDS011;13773;48.868;10.730;2023-04-23T02:34:38;4.30;;;2.60;;
25982;SDS011;13773;48.868;10.730;2023-04-23T02:37:03;4.40;;;3.00;;
25982;SDS011;13773;48.868;10.730;2023-04-23T02:39:30;3.60;;;2.73;;
25982;SDS011;13773;48.868;10.730;2023-04-23T02:41:56;2.93;;;2.60;;
25982;SDS011;13773;48.868;10.730;2023-04-23T02:44:22;6.43;;;3.00;;
25982;SDS011;13773;48.868;10.730;2023-04-23T02:46:48;4.87;;;2.87;;
25982;SDS011;13773;48.868;10.730;2023-04-23T02:49:15;4.37;;;2.93;;
25982;SDS011;13773;48.868;10.730;2023-04-23T02:51:40;3.87;;;2.47;;
25982;SDS011;13773;48.868;10.730;2023-04-23T02:54:06;4.73;;;2.80;;
25982;SDS011;13773;48.868;10.730;2023-04-23T02:56:32;5.43;;;3.40;;
25982;SDS011;13773;48.868;10.730;2023-04-23T02:58:58;3.70;;;3.07;;
25982;SDS011;13773;48.868;10.730;2023-04-23T03:01:25;4.67;;;2.97;;
25982;SDS011;13773;48.868;10.730;2023-04-23T03:03:51;5.63;;;3.10;;
25982;SDS011;13773;48.868;10.730;2023-04-23T03:06:17;4.00;;;3.43;;
25982;SDS011;13773;48.868;10.730;2023-04-23T03:08:42;3.43;;;2.90;;
25982;SDS011;13773;48.868;10.730;2023-04-23T03:11:08;4.27;;;3.33;;
25982;SDS011;13773;48.868;10.730;2023-04-23T03:13:34;6.40;;;3.50;;
25982;SDS011;13773;48.868;10.730;2023-04-23T03:15:59;6.00;;;3.00;;
25982;SDS011;13773;48.868;10.730;2023-04-23T03:18:25;3.63;;;3.00;;
25982;SDS011;13773;48.868;10.730;2023-04-23T03:20:51;6.37;;;3.30;;
25982;SDS011;13773;48.868;10.730;2023-04-23T03:23:16;4.87;;;3.40;;
25982;SDS011;13773;48.868;10.730;2023-04-23T03:25:42;5.23;;;3.20;;
25982;SDS011;13773;48.868;10.730;2023-04-23T03:28:08;6.40;;;3.30;;
25982;SDS011;13773;48.868;10.730;2023-04-23T03:30:33;6.17;;;3.93;;
25982;SDS011;13773;48.868;10.730;2023-04-23T03:32:59;4.47;;;3.00;;
25982;SDS011;13773;48.868;10.730;2023-04-23T03:35:26;3.87;;;3.40;;
25982;SDS011;13773;48.868;10.730;2023-04-23T03:37:52;7.10;;;3.77;;
25982;SDS011;13773;48.868;10.730;2023-04-23T03:40:18;3.77;;;3.33;;
25982;SDS011;13773;48.868;10.730;2023-04-23T03:42:44;6.70;;;3.83;;
25982;SDS011;13773;48.868;10.730;2023-04-23T03:45:10;5.60;;;3.80;;
25982;SDS011;13773;48.868;10.730;2023-04-23T03:47:37;5.30;;;3.50;;
25982;SDS011;13773;48.868;10.730;2023-04-23T03:50:03;5.63;;;3.57;;
25982;SDS011;13773;48.868;10.730;2023-04-23T03:52:30;4.00;;;3.70;;
25982;SDS011;13773;48.868;10.730;2023-04-23T03:54:56;4.33;;;3.93;;
25982;SDS011;13773;48.868;10.730;2023-04-23T03:57:22;7.80;;;4.03;;
25982;SDS011;13773;48.868;10.730;2023-04-23T03:59:47;6.97;;;4.37;;
25982;SDS011;13773;48.868;10.730;2023-04-23T04:02:13;7.37;;;4.60;;
25982;SDS011;13773;48.868;10.730;2023-04-23T04:04:39;5.93;;;4.30;;
25982;SDS011;13773;48.868;10.730;2023-04-23T04:07:06;9.67;;;4.70;;
25982;SDS011;13773;48.868;10.730;2023-04-23T04:09:36;7.13;;;4.30;;
25982;SDS011;13773;48.868;10.730;2023-04-23T04:12:01;5.93;;;4.67;;
25982;SDS011;13773;48.868;10.730;2023-04-23T04:14:28;6.50;;;4.40;;
25982;SDS011;13773;48.868;10.730;2023-04-23T04:16:55;8.27;;;3.97;;
25982;SDS011;13773;48.868;10.730;2023-04-23T04:19:21;7.30;;;4.13;;
25982;SDS011;13773;48.868;10.730;2023-04-23T04:21:46;5.73;;;4.20;;
25982;SDS011;13773;48.868;10.730;2023-04-23T04:24:12;5.60;;;3.63;;
25982;SDS011;13773;48.868;10.730;2023-04-23T04:26:38;6.07;;;4.13;;
25982;SDS011;13773;48.868;10.730;2023-04-23T04:29:04;7.67;;;4.10;;
25982;SDS011;13773;48.868;10.730;2023-04-23T04:31:30;8.67;;;3.90;;
25982;SDS011;13773;48.868;10.730;2023-04-23T04:33:57;5.13;;;4.43;;
25982;SDS011;13773;48.868;10.730;2023-04-23T04:36:23;6.73;;;4.93;;
25982;SDS011;13773;48.868;10.730;2023-04-23T04:38:51;6.77;;;4.37;;
25982;SDS011;13773;48.868;10.730;2023-04-23T04:41:19;8.30;;;4.27;;
25982;SDS011;13773;48.868;10.730;2023-04-23T04:43:46;6.30;;;4.37;;
25982;SDS011;13773;48.868;10.730;2023-04-23T04:46:12;6.10;;;4.37;;
25982;SDS011;13773;48.868;10.730;2023-04-23T04:48:39;4.90;;;4.27;;
25982;SDS011;13773;48.868;10.730;2023-04-23T04:51:05;5.83;;;4.70;;
25982;SDS011;13773;48.868;10.730;2023-04-23T04:53:31;8.00;;;4.73;;
25982;SDS011;13773;48.868;10.730;2023-04-23T04:55:57;7.70;;;4.77;;
25982;SDS011;13773;48.868;10.730;2023-04-23T04:58:22;6.53;;;4.60;;
25982;SDS011;13773;48.868;10.730;2023-04-23T05:00:48;5.10;;;4.30;;
25982;SDS011;13773;48.868;10.730;2023-04-23T05:03:16;5.67;;;4.30;;
25982;SDS011;13773;48.868;10.730;2023-04-23T05:05:43;4.47;;;4.00;;
25982;SDS011;13773;48.868;10.730;2023-04-23T05:08:09;6.80;;;4.70;;
25982;SDS011;13773;48.868;10.730;2023-04-23T05:10:36;4.60;;;4.20;;
25982;SDS011;13773;48.868;10.730;2023-04-23T05:13:02;4.40;;;3.97;;
25982;SDS011;13773;48.868;10.730;2023-04-23T05:15:28;7.23;;;5.20;;
25982;SDS011;13773;48.868;10.730;2023-04-23T05:17:53;4.63;;;4.23;;
25982;SDS011;13773;48.868;10.730;2023-04-23T05:20:20;8.10;;;4.70;;
25982;SDS011;13773;48.868;10.730;2023-04-23T05:22:46;6.33;;;4.73;;
25982;SDS011;13773;48.868;10.730;2023-04-23T05:25:12;5.40;;;4.70;;
25982;SDS011;13773;48.868;10.730;2023-04-23T05:27:38;7.10;;;5.47;;
25982;SDS011;13773;48.868;10.730;2023-04-23T05:30:05;7.73;;;5.17;;
25982;SDS011;13773;48.868;10.730;2023-04-23T05:32:33;7.17;;;5.27;;
25982;SDS011;13773;48.868;10.730;2023-04-23T05:34:59;7.83;;;5.60;;
25982;SDS011;13773;48.868;10.730;2023-04-23T05:37:26;7.63;;;5.40;;
25982;SDS011;13773;48.868;10.730;2023-04-23T05:39:53;7.10;;;5.63;;
25982;SDS011;13773;48.868;10.730;2023-04-23T05:42:18;7.27;;;5.40;;
25982;SDS011;13773;48.868;10.730;2023-04-23T05:44:44;7.17;;;5.67;;
25982;SDS011;13773;48.868;10.730;2023-04-23T05:47:11;6.40;;;5.63;;
25982;SDS011;13773;48.868;10.730;2023-04-23T05:49:38;5.47;;;4.93;;
25982;SDS011;13773;48.868;10.730;2023-04-23T05:52:03;7.27;;;5.40;;
25982;SDS011;13773;48.868;10.730;2023-04-23T05:54:29;5.37;;;4.73;;
25982;SDS011;13773;48.868;10.730;2023-04-23T05:56:55;6.77;;;5.33;;
25982;SDS011;13773;48.868;10.730;2023-04-23T05:59:21;7.37;;;4.83;;
25982;SDS011;13773;48.868;10.730;2023-04-23T06:01:47;5.40;;;4.77;;
25982;SDS011;13773;48.868;10.730;2023-04-23T06:04:13;4.93;;;4.43;;
25982;SDS011;13773;48.868;10.730;2023-04-23T06:06:39;8.00;;;5.27;;
25982;SDS011;13773;48.868;10.730;2023-04-23T06:09:06;6.33;;;5.07;;
25982;SDS011;13773;48.868;10.730;2023-04-23T06:11:32;6.17;;;4.97;;
25982;SDS011;13773;48.868;10.730;2023-04-23T06:14:00;6.90;;;5.30;;
25982;SDS011;13773;48.868;10.730;2023-04-23T06:16:29;6.00;;;5.40;;
25982;SDS011;13773;48.868;10.730;2023-04-23T06:18:55;5.57;;;4.93;;
25982;SDS011;13773;48.868;10.730;2023-04-23T06:21:21;7.40;;;5.60;;
25982;SDS011;13773;48.868;10.730;2023-04-23T06:23:47;6.17;;;5.57;;
25982;SDS011;13773;48.868;10.730;2023-04-23T06:26:13;6.13;;;5.33;;
25982;SDS011;13773;48.868;10.730;2023-04-23T06:28:40;6.83;;;5.57;;
25982;SDS011;13773;48.868;10.730;2023-04-23T06:31:06;7.67;;;5.23;;
25982;SDS011;13773;48.868;10.730;2023-04-23T06:33:33;8.03;;;5.50;;
25982;SDS011;13773;48.868;10.730;2023-04-23T06:36:00;6.83;;;5.17;;
25982;SDS011;13773;48.868;10.730;2023-04-23T06:38:26;7.63;;;5.70;;
25982;SDS011;13773;48.868;10.730;2023-04-23T06:40:51;7.70;;;5.93;;
25982;SDS011;13773;48.868;10.730;2023-04-23T06:43:17;6.43;;;5.37;;
25982;SDS011;13773;48.868;10.730;2023-04-23T06:45:43;6.77;;;5.80;;
25982;SDS011;13773;48.868;10.730;2023-04-23T06:48:08;7.00;;;5.13;;
25982;SDS011;13773;48.868;10.730;2023-04-23T06:50:34;5.30;;;4.80;;
25982;SDS011;13773;48.868;10.730;2023-04-23T06:53:00;7.27;;;5.43;;
25982;SDS011;13773;48.868;10.730;2023-04-23T06:55:26;6.00;;;5.00;;
25982;SDS011;13773;48.868;10.730;2023-04-23T06:57:53;7.57;;;5.30;;
25982;SDS011;13773;48.868;10.730;2023-04-23T07:00:21;7.33;;;5.07;;
25982;SDS011;13773;48.868;10.730;2023-04-23T07:02:47;5.87;;;5.00;;
25982;SDS011;13773;48.868;10.730;2023-04-23T07:05:13;5.60;;;5.00;;
25982;SDS011;13773;48.868;10.730;2023-04-23T07:07:39;6.57;;;5.03;;
25982;SDS011;13773;48.868;10.730;2023-04-23T07:10:07;8.37;;;6.33;;
25982;SDS011;13773;48.868;10.730;2023-04-23T07:12:34;6.47;;;5.00;;
25982;SDS011;13773;48.868;10.730;2023-04-23T07:15:01;6.37;;;5.23;;
25982;SDS011;13773;48.868;10.730;2023-04-23T07:17:26;6.60;;;5.37;;
25982;SDS011;13773;48.868;10.730;2023-04-23T07:19:52;7.77;;;5.23;;
25982;SDS011;13773;48.868;10.730;2023-04-23T07:22:18;7.10;;;5.60;;
25982;SDS011;13773;48.868;10.730;2023-04-23T07:24:43;5.97;;;5.33;;
25982;SDS011;13773;48.868;10.730;2023-04-23T07:27:09;5.70;;;5.20;;
25982;SDS011;13773;48.868;10.730;2023-04-23T07:29:35;5.80;;;5.30;;
25982;SDS011;13773;48.868;10.730;2023-04-23T07:32:01;8.27;;;5.53;;
25982;SDS011;13773;48.868;10.730;2023-04-23T07:34:26;6.17;;;5.60;;
25982;SDS011;13773;48.868;10.730;2023-04-23T07:36:52;6.17;;;5.57;;
25982;SDS011;13773;48.868;10.730;2023-04-23T07:39:20;7.57;;;5.10;;
25982;SDS011;13773;48.868;10.730;2023-04-23T07:41:46;7.40;;;5.93;;
25982;SDS011;13773;48.868;10.730;2023-04-23T07:44:11;6.90;;;5.97;;
25982;SDS011;13773;48.868;10.730;2023-04-23T07:46:37;5.50;;;5.00;;
25982;SDS011;13773;48.868;10.730;2023-04-23T07:49:03;7.83;;;5.80;;
25982;SDS011;13773;48.868;10.730;2023-04-23T07:51:29;8.97;;;5.70;;
25982;SDS011;13773;48.868;10.730;2023-04-23T07:53:56;5.20;;;4.80;;
25982;SDS011;13773;48.868;10.730;2023-04-23T07:56:22;5.93;;;4.90;;
25982;SDS011;13773;48.868;10.730;2023-04-23T07:58:48;6.20;;;5.60;;
25982;SDS011;13773;48.868;10.730;2023-04-23T08:01:15;5.50;;;4.70;;
25982;SDS011;13773;48.868;10.730;2023-04-23T08:03:41;5.10;;;4.70;;
25982;SDS011;13773;48.868;10.730;2023-04-23T08:06:06;5.23;;;4.73;;
25982;SDS011;13773;48.868;10.730;2023-04-23T08:08:34;6.33;;;4.77;;
25982;SDS011;13773;48.868;10.730;2023-04-23T08:11:00;5.07;;;4.57;;
25982;SDS011;13773;48.868;10.730;2023-04-23T08:13:26;4.47;;;4.07;;
25982;SDS011;13773;48.868;10.730;2023-04-23T08:15:51;7.10;;;4.93;;
25982;SDS011;13773;48.868;10.730;2023-04-23T08:18:17;4.40;;;4.00;;
25982;SDS011;13773;48.868;10.730;2023-04-23T08:20:43;5.03;;;4.53;;
25982;SDS011;13773;48.868;10.730;2023-04-23T08:23:09;6.57;;;4.10;;
25982;SDS011;13773;48.868;10.730;2023-04-23T08:25:35;5.47;;;4.97;;
25982;SDS011;13773;48.868;10.730;2023-04-23T08:28:00;4.60;;;4.20;;
25982;SDS011;13773;48.868;10.730;2023-04-23T08:30:27;4.80;;;4.30;;
25982;SDS011;13773;48.868;10.730;2023-04-23T08:32:53;4.50;;;4.07;;
25982;SDS011;13773;48.868;10.730;2023-04-23T08:35:19;4.03;;;3.63;;
25982;SDS011;13773;48.868;10.730;2023-04-23T08:37:45;4.87;;;3.67;;
25982;SDS011;13773;48.868;10.730;2023-04-23T08:40:11;5.63;;;3.70;;
25982;SDS011;13773;48.868;10.730;2023-04-23T08:42:48;4.53;;;4.13;;
25982;SDS011;13773;48.868;10.730;2023-04-23T08:45:15;5.00;;;3.67;;
25982;SDS011;13773;48.868;10.730;2023-04-23T08:47:41;4.40;;;3.30;;
25982;SDS011;13773;48.868;10.730;2023-04-23T08:50:10;3.77;;;3.30;;
25982;SDS011;13773;48.868;10.730;2023-04-23T08:52:39;4.67;;;3.40;;
25982;SDS011;13773;48.868;10.730;2023-04-23T08:55:07;3.37;;;3.07;;
25982;SDS011;13773;48.868;10.730;2023-04-23T08:57:38;3.40;;;3.10;;
25982;SDS011;13773;48.868;10.730;2023-04-23T09:00:05;3.03;;;2.73;;
25982;SDS011;13773;48.868;10.730;2023-04-23T09:02:39;3.20;;;2.90;;
25982;SDS011;13773;48.868;10.730;2023-04-23T09:05:09;4.23;;;2.90;;
25982;SDS011;13773;48.868;10.730;2023-04-23T09:07:35;3.00;;;2.80;;
25982;SDS011;13773;48.868;10.730;2023-04-23T09:10:02;2.83;;;2.53;;
25982;SDS011;13773;48.868;10.730;2023-04-23T09:12:29;2.67;;;2.30;;
25982;SDS011;13773;48.868;10.730;2023-04-23T09:14:55;1.97;;;1.80;;
25982;SDS011;13773;48.868;10.730;2023-04-23T09:17:21;2.63;;;2.43;;
25982;SDS011;13773;48.868;10.730;2023-04-23T09:19:51;2.70;;;2.40;;
25982;SDS011;13773;48.868;10.730;2023-04-23T09:25:09;2.47;;;2.27;;
25982;SDS011;13773;48.868;10.730;2023-04-23T09:27:36;2.83;;;2.23;;
25982;SDS011;13773;48.868;10.730;2023-04-23T09:30:03;2.00;;;1.80;;
25982;SDS011;13773;48.868;10.730;2023-04-23T09:32:32;2.27;;;1.90;;
25982;SDS011;13773;48.868;10.730;2023-04-23T09:34:58;2.00;;;1.90;;
25982;SDS011;13773;48.868;10.730;2023-04-23T09:37:27;1.80;;;1.70;;
25982;SDS011;13773;48.868;10.730;2023-04-23T09:39:53;1.80;;;1.70;;
25982;SDS011;13773;48.868;10.730;2023-04-23T09:42:22;1.97;;;1.77;;
25982;SDS011;13773;48.868;10.730;2023-04-23T09:44:55;2.10;;;1.90;;
25982;SDS011;13773;48.868;10.730;2023-04-23T09:47:32;1.83;;;1.27;;
25982;SDS011;13773;48.868;10.730;2023-04-23T09:50:13;1.57;;;1.40;;
25982;SDS011;13773;48.868;10.730;2023-04-23T09:52:38;1.47;;;1.37;;
25982;SDS011;13773;48.868;10.730;2023-04-23T09:55:05;2.97;;;1.43;;
25982;SDS011;13773;48.868;10.730;2023-04-23T09:57:37;1.77;;;1.57;;
25982;SDS011;13773;48.868;10.730;2023-04-23T10:00:12;1.90;;;1.80;;
25982;SDS011;13773;48.868;10.730;2023-04-23T10:02:46;2.00;;;1.83;;
25982;SDS011;13773;48.868;10.730;2023-04-23T10:05:15;3.77;;;2.03;;
25982;SDS011;13773;48.868;10.730;2023-04-23T10:07:45;2.50;;;2.30;;
25982;SDS011;13773;48.868;10.730;2023-04-23T10:10:13;2.67;;;2.47;;
25982;SDS011;13773;48.868;10.730;2023-04-23T10:12:39;2.00;;;1.90;;
25982;SDS011;13773;48.868;10.730;2023-04-23T10:15:06;2.43;;;2.20;;
25982;SDS011;13773;48.868;10.730;2023-04-23T10:17:34;5.07;;;2.57;;
25982;SDS011;13773;48.868;10.730;2023-04-23T10:20:00;2.77;;;2.57;;
25982;SDS011;13773;48.868;10.730;2023-04-23T10:22:28;2.93;;;2.67;;
25982;SDS011;13773;48.868;10.730;2023-04-23T10:24:55;2.63;;;2.30;;
25982;SDS011;13773;48.868;10.730;2023-04-23T10:27:28;3.03;;;2.50;;
25982;SDS011;13773;48.868;10.730;2023-04-23T10:29:59;2.77;;;2.50;;
25982;SDS011;13773;48.868;10.730;2023-04-23T10:32:25;2.27;;;2.07;;
25982;SDS011;13773;48.868;10.730;2023-04-23T10:34:52;2.20;;;2.00;;
25982;SDS011;13773;48.868;10.730;2023-04-23T10:37:18;2.20;;;2.00;;
25982;SDS011;13773;48.868;10.730;2023-04-23T10:39:45;1.50;;;1.40;;
25982;SDS011;13773;48.868;10.730;2023-04-23T10:42:14;1.77;;;1.60;;
25982;SDS011;13773;48.868;10.730;2023-04-23T10:44:41;1.93;;;1.70;;
25982;SDS011;13773;48.868;10.730;2023-04-23T10:47:11;2.20;;;1.60;;
25982;SDS011;13773;48.868;10.730;2023-04-23T10:49:38;2.33;;;1.47;;
25982;SDS011;13773;48.868;10.730;2023-04-23T10:52:08;1.60;;;1.50;;
25982;SDS011;13773;48.868;10.730;2023-04-23T10:54:39;1.97;;;1.77;;
25982;SDS011;13773;48.868;10.730;2023-04-23T10:57:08;1.80;;;1.47;;
25982;SDS011;13773;48.868;10.730;2023-04-23T10:59:39;2.73;;;1.40;;
25982;SDS011;13773;48.868;10.730;2023-04-23T11:02:15;1.77;;;1.40;;
25982;SDS011;13773;48.868;10.730;2023-04-23T11:04:43;1.90;;;1.63;;
25982;SDS011;13773;48.868;10.730;2023-04-23T11:07:11;2.33;;;1.40;;
25982;SDS011;13773;48.868;10.730;2023-04-23T11:12:06;1.83;;;1.30;;
25982;SDS011;13773;48.868;10.730;2023-04-23T11:14:52;1.40;;;1.30;;
25982;SDS011;13773;48.868;10.730;2023-04-23T11:17:22;1.73;;;1.37;;
25982;SDS011;13773;48.868;10.730;2023-04-23T11:20:09;2.00;;;1.17;;
25982;SDS011;13773;48.868;10.730;2023-04-23T11:22:46;1.30;;;1.17;;
25982;SDS011;13773;48.868;10.730;2023-04-23T11:25:14;1.43;;;1.33;;
25982;SDS011;13773;48.868;10.730;2023-04-23T11:27:44;1.50;;;1.40;;
25982;SDS011;13773;48.868;10.730;2023-04-23T11:30:12;1.77;;;1.20;;
25982;SDS011;13773;48.868;10.730;2023-04-23T11:32:39;1.90;;;1.23;;
25982;SDS011;13773;48.868;10.730;2023-04-23T11:35:06;2.50;;;1.40;;
25982;SDS011;13773;48.868;10.730;2023-04-23T11:37:37;1.70;;;1.60;;
25982;SDS011;13773;48.868;10.730;2023-04-23T11:40:05;1.60;;;1.27;;
25982;SDS011;13773;48.868;10.730;2023-04-23T11:42:51;2.93;;;1.43;;
25982;SDS011;13773;48.868;10.730;2023-04-23T11:45:22;2.23;;;1.53;;
25982;SDS011;13773;48.868;10.730;2023-04-23T11:47:50;1.60;;;1.50;;
25982;SDS011;13773;48.868;10.730;2023-04-23T11:50:20;2.87;;;1.50;;
25982;SDS011;13773;48.868;10.730;2023-04-23T11:52:47;2.00;;;1.80;;
25982;SDS011;13773;48.868;10.730;2023-04-23T11:55:14;2.33;;;1.80;;
25982;SDS011;13773;48.868;10.730;2023-04-23T11:57:41;1.90;;;1.50;;
25982;SDS011;13773;48.868;10.730;2023-04-23T12:00:21;2.40;;;1.87;;
25982;SDS011;13773;48.868;10.730;2023-04-23T12:02:52;1.90;;;1.33;;
25982;SDS011;13773;48.868;10.730;2023-04-23T12:08:05;1.53;;;1.40;;
25982;SDS011;13773;48.868;10.730;2023-04-23T12:10:31;2.30;;;1.97;;
25982;SDS011;13773;48.868;10.730;2023-04-23T12:12:57;1.80;;;1.70;;
25982;SDS011;13773;48.868;10.730;2023-04-23T12:15:22;1.60;;;1.50;;
25982;SDS011;13773;48.868;10.730;2023-04-23T12:17:49;2.37;;;1.70;;
25982;SDS011;13773;48.868;10.730;2023-04-23T12:20:18;1.83;;;1.70;;
25982;SDS011;13773;48.868;10.730;2023-04-23T12:22:45;4.30;;;1.90;;
25982;SDS011;13773;48.868;10.730;2023-04-23T12:25:11;1.80;;;1.60;;
25982;SDS011;13773;48.868;10.730;2023-04-23T12:27:40;2.47;;;1.70;;
25982;SDS011;13773;48.868;10.730;2023-04-23T12:30:08;1.60;;;1.40;;
25982;SDS011;13773;48.868;10.730;2023-04-23T12:32:35;1.80;;;1.70;;
25982;SDS011;13773;48.868;10.730;2023-04-23T12:35:02;2.13;;;1.67;;
25982;SDS011;13773;48.868;10.730;2023-04-23T12:37:34;1.70;;;1.57;;
25982;SDS011;13773;48.868;10.730;2023-04-23T12:40:01;1.70;;;1.60;;
25982;SDS011;13773;48.868;10.730;2023-04-23T12:42:31;1.77;;;1.60;;
25982;SDS011;13773;48.868;10.730;2023-04-23T12:45:03;1.60;;;1.50;;
25982;SDS011;13773;48.868;10.730;2023-04-23T12:47:34;2.33;;;1.50;;
25982;SDS011;13773;48.868;10.730;2023-04-23T12:49:59;1.60;;;1.50;;
25982;SDS011;13773;48.868;10.730;2023-04-23T12:52:25;3.23;;;1.73;;
25982;SDS011;13773;48.868;10.730;2023-04-23T12:54:51;2.70;;;1.37;;
25982;SDS011;13773;48.868;10.730;2023-04-23T12:57:20;1.77;;;1.60;;
25982;SDS011;13773;48.868;10.730;2023-04-23T12:59:47;1.83;;;1.60;;
25982;SDS011;13773;48.868;10.730;2023-04-23T13:02:13;1.40;;;1.20;;
25982;SDS011;13773;48.868;10.730;2023-04-23T13:04:39;1.40;;;1.30;;
25982;SDS011;13773;48.868;10.730;2023-04-23T13:07:04;1.63;;;1.47;;
25982;SDS011;13773;48.868;10.730;2023-04-23T13:09:30;1.63;;;1.20;;
25982;SDS011;13773;48.868;10.730;2023-04-23T13:11:56;1.20;;;1.10;;
25982;SDS011;13773;48.868;10.730;2023-04-23T13:14:21;1.67;;;1.23;;
25982;SDS011;13773;48.868;10.730;2023-04-23T13:16:47;1.67;;;1.20;;
25982;SDS011;13773;48.868;10.730;2023-04-23T13:19:13;1.30;;;1.20;;
25982;SDS011;13773;48.868;10.730;2023-04-23T13:21:40;1.77;;;1.60;;
25982;SDS011;13773;48.868;10.730;2023-04-23T13:24:06;3.27;;;1.40;;
25982;SDS011;13773;48.868;10.730;2023-04-23T13:26:32;1.43;;;1.23;;
25982;SDS011;13773;48.868;10.730;2023-04-23T13:28:58;2.90;;;1.30;;
25982;SDS011;13773;48.868;10.730;2023-04-23T13:31:24;2.43;;;1.00;;
25982;SDS011;13773;48.868;10.730;2023-04-23T13:33:50;1.40;;;1.30;;
25982;SDS011;13773;48.868;10.730;2023-04-23T13:36:17;1.27;;;1.17;;
25982;SDS011;13773;48.868;10.730;2023-04-23T13:38:43;0.80;;;0.80;;
25982;SDS011;13773;48.868;10.730;2023-04-23T13:41:09;1.20;;;1.10;;
25982;SDS011;13773;48.868;10.730;2023-04-23T13:43:35;2.07;;;1.30;;
25982;SDS011;13773;48.868;10.730;2023-04-23T13:46:00;2.10;;;1.10;;
25982;SDS011;13773;48.868;10.730;2023-04-23T13:48:26;1.90;;;1.00;;
25982;SDS011;13773;48.868;10.730;2023-04-23T13:50:58;1.67;;;1.17;;
25982;SDS011;13773;48.868;10.730;2023-04-23T13:53:25;1.00;;;1.00;;
25982;SDS011;13773;48.868;10.730;2023-04-23T13:55:55;1.20;;;1.10;;
25982;SDS011;13773;48.868;10.730;2023-04-23T13:58:21;1.77;;;1.10;;
25982;SDS011;13773;48.868;10.730;2023-04-23T14:00:50;1.70;;;1.13;;
25982;SDS011;13773;48.868;10.730;2023-04-23T14:03:16;2.23;;;1.10;;
25982;SDS011;13773;48.868;10.730;2023-04-23T14:05:44;1.70;;;1.30;;
25982;SDS011;13773;48.868;10.730;2023-04-23T14:08:09;1.90;;;1.10;;
25982;SDS011;13773;48.868;10.730;2023-04-23T14:10:36;2.70;;;1.10;;
25982;SDS011;13773;48.868;10.730;2023-04-23T14:13:02;1.20;;;1.10;;
25982;SDS011;13773;48.868;10.730;2023-04-23T14:15:28;2.03;;;1.30;;
25982;SDS011;13773;48.868;10.730;2023-04-23T14:17:54;2.10;;;1.27;;
25982;SDS011;13773;48.868;10.730;2023-04-23T14:20:20;2.37;;;1.40;;
25982;SDS011;13773;48.868;10.730;2023-04-23T14:22:49;2.57;;;1.30;;
25982;SDS011;13773;48.868;10.730;2023-04-23T14:25:39;2.03;;;1.43;;
25982;SDS011;13773;48.868;10.730;2023-04-23T14:30:57;1.63;;;1.20;;
25982;SDS011;13773;48.868;10.730;2023-04-23T14:33:24;1.20;;;1.10;;
25982;SDS011;13773;48.868;10.730;2023-04-23T14:35:50;0.97;;;0.90;;
25982;SDS011;13773;48.868;10.730;2023-04-23T14:38:17;1.33;;;1.07;;
25982;SDS011;13773;48.868;10.730;2023-04-23T14:40:42;3.00;;;1.27;;
25982;SDS011;13773;48.868;10.730;2023-04-23T14:43:08;2.60;;;1.07;;